Flight Track Log - Related Links

Times and Time Zones

All times are in EDT time to prevent confusion due to time zone crossing. See the SWA3685 flight status page for this flight to view local times or setup timezone preferences in your user account.

Time Position Orientation Groundspeed Altitude Reporting Facility
EDT Latitude Longitude Course Direction KTS MPH feet Rate Location/Type
Thu 02:41:06 PM 41.8000 -87.7667 63° Northeast 155 178 2,000  Level Chicago TRACON
Thu 02:42:56 PM 41.8425 -87.6536 63° Northeast 243 280 4,900 1,047 Climbing Chicago Center
Thu 02:43:58 PM 41.8503 -87.5511 84° East 263 303 5,000 1,210 Climbing Chicago Center
Thu 02:45:00 PM 41.8442 -87.4358 94° East 266 306 7,400 2,903 Climbing Chicago Center
Thu 02:46:02 PM 41.8225 -87.3344 106° East 279 321 11,000 3,168 Climbing Chicago Center
Thu 02:47:05 PM 41.7989 -87.2278 107° East 296 341 14,000 2,736 Climbing Chicago Center
Thu 02:48:07 PM 41.7700 -87.1022 107° East 350 403 16,700 2,613 Climbing Chicago Center
Thu 02:49:09 PM 41.7617 -86.9622 95° East 378 435 19,400 2,903 Climbing Chicago Center
Thu 02:50:11 PM 41.7650 -86.7875 88° East 393 452 22,700 2,710 Climbing Chicago Center
Thu 02:51:13 PM 41.7653 -86.6397 90° East 413 475 25,000 2,177 Climbing Chicago Center
Thu 02:52:15 PM 41.7667 -86.4833 89° East 420 483 27,200 1,935 Climbing Chicago Center
Thu 02:53:17 PM 41.7697 -86.3219 88° East 433 498 29,000 1,694 Climbing Chicago Center
Thu 02:54:19 PM 41.7964 -86.1558 78° East 457 526 30,700 1,839 Climbing Chicago Center
Thu 02:55:21 PM 41.8311 -85.9558 77° East 459 528 32,800 1,790 Climbing Chicago Center
Thu 02:56:23 PM 41.8592 -85.7853 77° East 464 534 34,400 1,548 Climbing Chicago Center
Thu 02:57:25 PM 41.8883 -85.6133 77° East 468 539 36,000 1,440 Climbing Chicago Center
Thu 02:58:28 PM 41.9167 -85.4433 77° East 462 532 37,400 1,404 Climbing Chicago Center
Thu 02:58:59 PM 41.9364 -85.3403 76° East 464 534 38,200 1,055 Climbing Cleveland Center
Thu 02:59:59 PM 41.9536 -85.1711 82° East 488 562 39,000 400 Climbing Cleveland Center
Thu 03:00:59 PM 41.9542 -85.0008 90° East 468 539 39,000  Level Cleveland Center
Thu 03:02:00 PM 41.9536 -84.8500 90° East 456 525 39,000  Level Cleveland Center
Thu 03:02:59 PM 41.9700 -84.6806 83° East 456 525 39,000  Level Cleveland Center
Thu 03:03:59 PM 41.9928 -84.5117 80° East 456 525 39,000  Level Cleveland Center
Thu 03:04:59 PM 42.0108 -84.3422 82° East 461 531 39,000  Level Cleveland Center
Thu 03:05:59 PM 42.0272 -84.1614 83° East 452 520 39,000  Level Cleveland Center
Thu 03:07:00 PM 42.0469 -83.9919 81° East 452 520 39,000  Level Cleveland Center
Thu 03:07:59 PM 42.0642 -83.8278 82° East 447 514 39,000  Level Cleveland Center
Thu 03:08:59 PM 42.0808 -83.6775 81° East 452 520 39,000  Level Cleveland Center
Thu 03:09:59 PM 42.1022 -83.4967 81° East 447 514 39,000  Level Cleveland Center
Thu 03:10:59 PM 42.1189 -83.3267 82° East 447 514 39,000  Level Cleveland Center
Thu 03:11:59 PM 42.1350 -83.1733 82° East 447 514 39,000  Level Cleveland Center
Thu 03:12:59 PM 42.1531 -83.0114 81° East 447 514 39,000  Level Cleveland Center
Thu 03:13:59 PM 42.1711 -82.8442 82° East 447 514 39,000  Level Cleveland Center
Thu 03:14:59 PM 42.1889 -82.6739 82° East 447 514 39,000  Level Cleveland Center
Thu 03:16:00 PM 42.2064 -82.5061 82° East 447 514 39,000  Level Cleveland Center
Thu 03:16:59 PM 42.2217 -82.3356 83° East 447 514 39,000  Level Cleveland Center
Thu 03:17:59 PM 42.2408 -82.1650 81° East 452 520 39,000  Level Cleveland Center
Thu 03:19:00 PM 42.2597 -81.9942 81° East 452 520 39,000  Level Cleveland Center
Thu 03:19:59 PM 42.2742 -81.8206 84° East 464 534 39,000  Level Cleveland Center
Thu 03:20:59 PM 42.2928 -81.6358 82° East 464 534 39,000  Level Cleveland Center
Thu 03:21:59 PM 42.3089 -81.4675 83° East 459 528 39,000  Level Cleveland Center
Thu 03:22:59 PM 42.3225 -81.2992 84° East 459 528 39,000  Level Cleveland Center
Thu 03:23:59 PM 42.3400 -81.1281 82° East 459 528 39,000  Level Cleveland Center
Thu 03:24:59 PM 42.3533 -80.9625 84° East 452 520 39,000  Level Cleveland Center
Thu 03:25:59 PM 42.3683 -80.7939 83° East 443 510 39,000  Level Cleveland Center
Thu 03:26:59 PM 42.3811 -80.6308 84° East 443 510 39,000  Level Cleveland Center
Thu 03:28:00 PM 42.3936 -80.4847 83° East 443 510 39,000  Level Cleveland Center
Thu 03:28:59 PM 42.4078 -80.3189 83° East 443 510 39,000  Level Cleveland Center
Thu 03:29:59 PM 42.4197 -80.1528 84° East 443 510 39,000  Level Cleveland Center
Thu 03:30:59 PM 42.4336 -79.9869 83° East 443 510 39,000  Level Cleveland Center
Thu 03:31:59 PM 42.4472 -79.8233 84° East 443 510 39,000  Level Cleveland Center
Thu 03:32:59 PM 42.4647 -79.6403 83° East 443 510 39,000  Level Cleveland Center
Thu 03:33:59 PM 42.4758 -79.4711 85° East 443 510 39,000  Level Cleveland Center
Thu 03:34:59 PM 42.4864 -79.3022 85° East 443 510 39,000  Level Cleveland Center
Thu 03:35:59 PM 42.4992 -79.1358 84° East 443 510 39,000  Level Cleveland Center
Thu 03:36:59 PM 42.5114 -78.9664 84° East 443 510 39,000  Level Cleveland Center
Thu 03:37:59 PM 42.5214 -78.7944 85° East 443 510 39,000  Level Cleveland Center
Thu 03:38:59 PM 42.5333 -78.6250 84° East 443 510 39,000  Level Cleveland Center
Thu 03:40:00 PM 42.5428 -78.4583 86° East 443 510 39,000  Level Cleveland Center
Thu 03:40:59 PM 42.5542 -78.2889 85° East 448 516 39,000  Level Cleveland Center
Thu 03:41:59 PM 42.5653 -78.1192 85° East 443 510 39,000  Level Cleveland Center
Thu 03:43:00 PM 42.5739 -77.9497 86° East 448 516 39,000  Level Cleveland Center
Thu 03:43:59 PM 42.5847 -77.7800 85° East 442 509 39,000  Level Cleveland Center
Thu 03:44:59 PM 42.5931 -77.6133 86° East 442 509 39,000  Level Cleveland Center
Thu 03:46:00 PM 42.6019 -77.4803 85° East 442 509 39,000 -800 Level Cleveland Center
Thu 03:46:59 PM 42.6114 -77.2908 86° East 447 514 37,400 -638 Descending Cleveland Center
Thu 03:49:08 PM 42.6300 -76.9447 86° East 422 486 37,000 -127 Descending Boston Center
Thu 03:50:08 PM 42.6383 -76.7844 86° East 422 486 37,000  Level Boston Center
Thu 03:51:08 PM 42.6467 -76.6211 86° East 422 486 37,000  Level Boston Center
Thu 03:52:08 PM 42.6544 -76.4578 86° East 422 486 37,000  Level Boston Center
Thu 03:53:08 PM 42.6622 -76.2975 86° East 422 486 37,000  Level Boston Center
Thu 03:54:08 PM 42.6703 -76.1200 86° East 422 486 37,000  Level Boston Center
Thu 03:55:08 PM 42.6772 -75.9592 87° East 422 486 37,000  Level Boston Center
Thu 03:56:08 PM 42.6822 -75.7958 88° East 422 486 37,000  Level Boston Center
Thu 03:57:08 PM 42.6892 -75.6322 87° East 422 486 37,000  Level Boston Center
Thu 03:58:08 PM 42.6956 -75.4686 87° East 422 486 37,000  Level Boston Center
Thu 03:59:08 PM 42.7019 -75.3050 87° East 422 486 37,000  Level Boston Center
Thu 04:00:08 PM 42.7081 -75.1442 87° East 422 486 37,000  Level Boston Center
Thu 04:01:08 PM 42.7139 -74.9833 87° East 422 486 37,000  Level Boston Center
Thu 04:02:08 PM 42.7172 -74.8225 88° East 422 486 37,000  Level Boston Center
Thu 04:03:08 PM 42.7228 -74.6558 87° East 422 486 37,000  Level Boston Center
Thu 04:04:08 PM 42.7278 -74.4950 88° East 422 486 37,000  Level Boston Center
Thu 04:05:08 PM 42.7328 -74.3367 87° East 422 486 37,000 -300 Level Boston Center
Thu 04:06:08 PM 42.7372 -74.1786 88° East 422 486 36,400 -750 Descending Boston Center
Thu 04:07:08 PM 42.7439 -74.0147 87° East 422 486 35,500 -950 Descending Boston Center
Thu 04:08:08 PM 42.7439 -73.8508 90° East 422 486 34,500 -1,000 Descending Boston Center
Thu 04:09:08 PM 42.7353 -73.6894 94° East 422 486 33,500 -750 Descending Boston Center
Thu 04:10:08 PM 42.7222 -73.5450 97° East 422 486 33,000 -250 Descending Boston Center
Thu 04:11:08 PM 42.7028 -73.3781 99° East 427 491 33,000 -400 Level Boston Center
Thu 04:12:08 PM 42.6856 -73.2083 98° East 438 504 32,200 -900 Descending Boston Center
Thu 04:13:08 PM 42.6697 -73.0386 97° East 448 516 31,200 -1,000 Descending Boston Center
Thu 04:14:08 PM 42.6456 -72.8606 100° East 466 536 30,200 -1,000 Descending Boston Center
Thu 04:15:08 PM 42.6272 -72.6856 98° East 471 542 29,200 -2,050 Descending Boston Center
Thu 04:16:08 PM 42.6089 -72.5106 98° East 456 525 26,100 -2,700 Descending Boston Center
Thu 04:17:08 PM 42.5858 -72.3583 102° East 449 517 23,800 -2,400 Descending Boston Center
Thu 04:18:08 PM 42.5669 -72.2033 99° East 426 490 21,300 -2,600 Descending Boston Center
Thu 04:19:08 PM 42.5436 -72.0456 101° East 404 465 18,600 -2,350 Descending Boston Center
Thu 04:20:08 PM 42.5347 -71.9161 95° East 385 443 16,600 -2,300 Descending Boston Center
Thu 04:21:08 PM 42.5192 -71.7697 98° East 374 430 14,000 -2,400 Descending Boston Center
Thu 04:22:08 PM 42.5081 -71.6600 98° East 338 389 11,800 -1,824 Descending Boston Center
Thu 04:22:50 PM 42.5000 -71.5500 96° East 323 372 10,900 -529 Descending KA90
Thu 04:23:50 PM 42.4833 -71.4500 103° East 273 314 10,900 50 Level KA90
Thu 04:24:50 PM 42.4833 -71.3667 90° East 249 287 11,000 -450 Climbing KA90
Thu 04:25:50 PM 42.4667 -71.2667 103° East 247 284 10,000 -1,050 Descending KA90
Thu 04:26:50 PM 42.4667 -71.1833 90° East 240 276 8,900 -1,150 Descending KA90
Thu 04:27:50 PM 42.4500 -71.1000 105° East 236 272 7,700 -1,000 Descending KA90
Thu 04:28:50 PM 42.4333 -71.0167 105° East 252 290 6,900 -350 Descending KA90
Thu 04:29:50 PM 42.3667 -70.9667 151° Southeast 254 292 7,000 -250 Climbing KA90
Thu 04:30:50 PM 42.3000 -70.9333 160° South 255 293 6,400 -574 Descending KA90
Thu 04:31:45 PM 42.2500 -70.9667 206° Southwest 251 289 5,900 -209 Descending KA90
Thu 04:32:45 PM 42.1833 -71.0000 200° South 251 289 6,000 -240 Climbing KA90
Thu 04:33:50 PM 42.1167 -71.0333 200° South 243 280 5,400 -750 Descending KA90
Thu 04:34:45 PM 42.1500 -71.1000 304° West 213 245 4,500 -1,148 Descending KA90
Thu 04:35:45 PM 42.2000 -71.0833 14° North 218 251 3,200 -1,238 Descending KA90
Thu 04:36:51 PM 42.2667 -71.0500 20° North 207 238 1,900 -1,000 Descending KA90
Thu 04:37:51 PM 42.3000 -71.0333 20° North 157 181 1,100 -800 Descending KA90
Thu 04:38:51 PM 42.3333 -71.0167 20° North 124 143 300 -800 Descending KA90

Login

Don't have an account? Register now (free) for customized features, flight alerts, and more!